sensor_id;sensor_type;location;lat;lon;timestamp;pressure;altitude;pressure_sealevel;temperature;humidity
77041;BME280;65974;42.664;23.264;2023-04-15T00:00:27;93642.50;;;7.39;70.92
77041;BME280;65974;42.664;23.264;2023-04-15T00:02:53;93645.53;;;7.34;72.11
77041;BME280;65974;42.664;23.264;2023-04-15T00:05:19;93650.44;;;7.32;71.89
77041;BME280;65974;42.664;23.264;2023-04-15T00:07:45;93645.16;;;7.36;71.62
77041;BME280;65974;42.664;23.264;2023-04-15T00:10:12;93638.34;;;7.42;72.72
77041;BME280;65974;42.664;23.264;2023-04-15T00:12:39;93643.69;;;7.56;72.54
77041;BME280;65974;42.664;23.264;2023-04-15T00:15:06;93639.88;;;7.53;72.26
77041;BME280;65974;42.664;23.264;2023-04-15T00:17:33;93631.94;;;7.53;73.15
77041;BME280;65974;42.664;23.264;2023-04-15T00:19:58;93624.00;;;7.53;73.48
77041;BME280;65974;42.664;23.264;2023-04-15T00:22:25;93638.38;;;7.63;73.20
77041;BME280;65974;42.664;23.264;2023-04-15T00:24:55;93631.94;;;7.71;72.34
77041;BME280;65974;42.664;23.264;2023-04-15T00:27:21;93630.81;;;7.75;72.36
77041;BME280;65974;42.664;23.264;2023-04-15T00:29:46;93629.28;;;7.78;71.76
77041;BME280;65974;42.664;23.264;2023-04-15T00:32:12;93631.19;;;7.77;71.65
77041;BME280;65974;42.664;23.264;2023-04-15T00:34:37;93630.44;;;7.77;71.88
77041;BME280;65974;42.664;23.264;2023-04-15T00:37:04;93634.59;;;7.74;73.04
77041;BME280;65974;42.664;23.264;2023-04-15T00:39:29;93628.16;;;7.68;74.16
77041;BME280;65974;42.664;23.264;2023-04-15T00:41:55;93624.75;;;7.61;74.61
77041;BME280;65974;42.664;23.264;2023-04-15T00:44:22;93623.97;;;7.57;74.36
77041;BME280;65974;42.664;23.264;2023-04-15T00:46:50;93615.66;;;7.58;74.24
77041;BME280;65974;42.664;23.264;2023-04-15T00:49:15;93618.69;;;7.64;74.44
77041;BME280;65974;42.664;23.264;2023-04-15T00:51:42;93617.56;;;7.68;75.10
77041;BME280;65974;42.664;23.264;2023-04-15T00:54:09;93623.97;;;7.71;74.75
77041;BME280;65974;42.664;23.264;2023-04-15T00:56:36;93625.88;;;7.77;75.22
77041;BME280;65974;42.664;23.264;2023-04-15T00:59:03;93638.00;;;7.57;75.71
77041;BME280;65974;42.664;23.264;2023-04-15T01:01:29;93629.28;;;7.43;76.01
77041;BME280;65974;42.664;23.264;2023-04-15T01:03:56;93635.69;;;7.38;76.07
77041;BME280;65974;42.664;23.264;2023-04-15T01:06:24;93643.25;;;7.33;76.46
77041;BME280;65974;42.664;23.264;2023-04-15T01:08:52;93648.56;;;7.40;76.27
77041;BME280;65974;42.664;23.264;2023-04-15T01:11:18;93645.13;;;7.29;76.22
77041;BME280;65974;42.664;23.264;2023-04-15T01:13:45;93645.88;;;7.33;75.36
77041;BME280;65974;42.664;23.264;2023-04-15T01:16:13;93649.69;;;7.35;74.37
77041;BME280;65974;42.664;23.264;2023-04-15T01:18:39;93649.72;;;7.39;73.88
77041;BME280;65974;42.664;23.264;2023-04-15T01:21:05;93649.31;;;7.40;73.72
77041;BME280;65974;42.664;23.264;2023-04-15T01:23:34;93644.03;;;7.37;74.14
77041;BME280;65974;42.664;23.264;2023-04-15T01:26:01;93638.31;;;7.35;72.68
77041;BME280;65974;42.664;23.264;2023-04-15T01:28:28;93632.28;;;7.41;72.62
77041;BME280;65974;42.664;23.264;2023-04-15T01:31:10;93633.44;;;7.40;71.78
77041;BME280;65974;42.664;23.264;2023-04-15T01:33:37;93628.09;;;7.33;71.96
77041;BME280;65974;42.664;23.264;2023-04-15T01:36:04;93627.38;;;7.40;72.17
77041;BME280;65974;42.664;23.264;2023-04-15T01:38:30;93631.53;;;7.37;71.23
77041;BME280;65974;42.664;23.264;2023-04-15T01:40:58;93635.69;;;7.31;71.35
77041;BME280;65974;42.664;23.264;2023-04-15T01:43:24;93639.06;;;7.21;72.64
77041;BME280;65974;42.664;23.264;2023-04-15T01:45:50;93628.84;;;7.13;73.27
77041;BME280;65974;42.664;23.264;2023-04-15T01:48:15;93638.25;;;6.99;73.72
77041;BME280;65974;42.664;23.264;2023-04-15T01:50:43;93644.66;;;6.91;74.03
77041;BME280;65974;42.664;23.264;2023-04-15T01:53:09;93645.00;;;6.86;73.65
77041;BME280;65974;42.664;23.264;2023-04-15T01:55:35;93646.09;;;6.78;74.37
77041;BME280;65974;42.664;23.264;2023-04-15T01:58:01;93649.09;;;6.66;75.79
77041;BME280;65974;42.664;23.264;2023-04-15T02:00:27;93654.34;;;6.59;74.80
77041;BME280;65974;42.664;23.264;2023-04-15T02:02:52;93664.16;;;6.62;75.23
77041;BME280;65974;42.664;23.264;2023-04-15T02:05:18;93662.69;;;6.68;75.39
77041;BME280;65974;42.664;23.264;2023-04-15T02:07:44;93652.13;;;6.68;75.15
77041;BME280;65974;42.664;23.264;2023-04-15T02:10:10;93659.31;;;6.71;75.23
77041;BME280;65974;42.664;23.264;2023-04-15T02:12:38;93656.28;;;6.69;74.93
77041;BME280;65974;42.664;23.264;2023-04-15T02:15:05;93648.38;;;6.80;74.42
77041;BME280;65974;42.664;23.264;2023-04-15T02:17:35;93648.75;;;6.78;74.90
77041;BME280;65974;42.664;23.264;2023-04-15T02:20:02;93641.16;;;6.66;74.58
77041;BME280;65974;42.664;23.264;2023-04-15T02:22:33;93638.41;;;6.52;75.83
77041;BME280;65974;42.664;23.264;2023-04-15T02:24:58;93632.69;;;6.40;75.85
77041;BME280;65974;42.664;23.264;2023-04-15T02:27:24;93631.84;;;6.25;76.71
77041;BME280;65974;42.664;23.264;2023-04-15T02:29:50;93645.03;;;6.18;76.75
77041;BME280;65974;42.664;23.264;2023-04-15T02:32:16;93645.34;;;6.06;76.67
77041;BME280;65974;42.664;23.264;2023-04-15T02:34:42;93641.13;;;5.98;77.39
77041;BME280;65974;42.664;23.264;2023-04-15T02:37:11;93645.97;;;5.89;77.32
77041;BME280;65974;42.664;23.264;2023-04-15T02:39:37;93645.13;;;5.81;78.36
77041;BME280;65974;42.664;23.264;2023-04-15T02:42:03;93647.72;;;5.78;78.26
77041;BME280;65974;42.664;23.264;2023-04-15T02:44:30;93646.63;;;5.79;78.25
77041;BME280;65974;42.664;23.264;2023-04-15T02:46:58;93639.81;;;5.78;78.21
77041;BME280;65974;42.664;23.264;2023-04-15T02:49:24;93649.59;;;5.74;78.58
77041;BME280;65974;42.664;23.264;2023-04-15T02:51:51;93643.53;;;5.73;78.29
77041;BME280;65974;42.664;23.264;2023-04-15T02:54:21;93647.31;;;5.72;78.13
77041;BME280;65974;42.664;23.264;2023-04-15T02:56:50;93651.47;;;5.73;77.86
77041;BME280;65974;42.664;23.264;2023-04-15T02:59:16;93648.09;;;5.73;78.35
77041;BME280;65974;42.664;23.264;2023-04-15T03:01:41;93663.19;;;5.76;78.92
77041;BME280;65974;42.664;23.264;2023-04-15T03:04:07;93660.91;;;5.74;78.95
77041;BME280;65974;42.664;23.264;2023-04-15T03:06:33;93649.59;;;5.74;78.92
77041;BME280;65974;42.664;23.264;2023-04-15T03:08:59;93665.50;;;5.81;78.83
77041;BME280;65974;42.664;23.264;2023-04-15T03:11:28;93663.31;;;5.86;78.07
77041;BME280;65974;42.664;23.264;2023-04-15T03:13:53;93667.50;;;5.94;77.63
77041;BME280;65974;42.664;23.264;2023-04-15T03:16:19;93677.38;;;6.01;77.36
77041;BME280;65974;42.664;23.264;2023-04-15T03:18:46;93659.19;;;5.89;77.57
77041;BME280;65974;42.664;23.264;2023-04-15T03:21:12;93673.44;;;5.81;78.11
77041;BME280;65974;42.664;23.264;2023-04-15T03:23:37;93674.59;;;5.83;77.74
77041;BME280;65974;42.664;23.264;2023-04-15T03:26:03;93669.38;;;5.90;77.38
77041;BME280;65974;42.664;23.264;2023-04-15T03:28:29;93670.13;;;5.91;77.57
77041;BME280;65974;42.664;23.264;2023-04-15T03:30:55;93686.78;;;5.95;77.78
77041;BME280;65974;42.664;23.264;2023-04-15T03:33:21;93690.16;;;5.92;77.77
77041;BME280;65974;42.664;23.264;2023-04-15T03:35:47;93691.66;;;5.89;77.67
77041;BME280;65974;42.664;23.264;2023-04-15T03:38:12;93688.25;;;5.89;77.74
77041;BME280;65974;42.664;23.264;2023-04-15T03:40:41;93691.97;;;5.84;77.92
77041;BME280;65974;42.664;23.264;2023-04-15T03:43:07;93691.88;;;5.77;78.07
77041;BME280;65974;42.664;23.264;2023-04-15T03:45:34;93697.47;;;5.69;77.83
77041;BME280;65974;42.664;23.264;2023-04-15T03:47:59;93705.84;;;5.74;77.37
77041;BME280;65974;42.664;23.264;2023-04-15T03:50:26;93710.66;;;5.69;77.15
77041;BME280;65974;42.664;23.264;2023-04-15T03:52:52;93720.41;;;5.61;77.70
77041;BME280;65974;42.664;23.264;2023-04-15T03:55:17;93719.25;;;5.59;77.78
77041;BME280;65974;42.664;23.264;2023-04-15T03:57:44;93717.69;;;5.54;78.23
77041;BME280;65974;42.664;23.264;2023-04-15T04:00:10;93718.53;;;5.62;77.80
77041;BME280;65974;42.664;23.264;2023-04-15T04:02:36;93722.00;;;5.69;77.83
77041;BME280;65974;42.664;23.264;2023-04-15T04:05:02;93725.72;;;5.65;77.11
77041;BME280;65974;42.664;23.264;2023-04-15T04:07:28;93722.66;;;5.59;77.26
77041;BME280;65974;42.664;23.264;2023-04-15T04:09:54;93725.69;;;5.58;77.57
77041;BME280;65974;42.664;23.264;2023-04-15T04:12:19;93728.41;;;5.68;77.05
77041;BME280;65974;42.664;23.264;2023-04-15T04:14:45;93729.13;;;5.65;76.75
77041;BME280;65974;42.664;23.264;2023-04-15T04:17:11;93727.28;;;5.69;76.23
77041;BME280;65974;42.664;23.264;2023-04-15T04:19:37;93722.78;;;5.73;76.12
77041;BME280;65974;42.664;23.264;2023-04-15T04:22:03;93718.28;;;5.74;74.86
77041;BME280;65974;42.664;23.264;2023-04-15T04:24:29;93721.34;;;5.79;74.75
77041;BME280;65974;42.664;23.264;2023-04-15T04:26:54;93713.13;;;5.88;74.88
77041;BME280;65974;42.664;23.264;2023-04-15T04:29:21;93713.56;;;5.90;74.71
77041;BME280;65974;42.664;23.264;2023-04-15T04:31:47;93710.91;;;5.90;75.14
77041;BME280;65974;42.664;23.264;2023-04-15T04:34:13;93721.06;;;5.88;75.36
77041;BME280;65974;42.664;23.264;2023-04-15T04:36:40;93721.75;;;5.81;75.92
77041;BME280;65974;42.664;23.264;2023-04-15T04:39:05;93721.34;;;5.79;76.50
77041;BME280;65974;42.664;23.264;2023-04-15T04:41:31;93730.03;;;5.80;76.63
77041;BME280;65974;42.664;23.264;2023-04-15T04:43:56;93720.63;;;5.82;77.02
77041;BME280;65974;42.664;23.264;2023-04-15T04:46:22;93730.13;;;5.87;77.06
77041;BME280;65974;42.664;23.264;2023-04-15T04:48:48;93730.91;;;5.91;77.55
77041;BME280;65974;42.664;23.264;2023-04-15T04:51:13;93730.59;;;5.96;77.35
77041;BME280;65974;42.664;23.264;2023-04-15T04:53:39;93729.81;;;5.95;77.46
77041;BME280;65974;42.664;23.264;2023-04-15T04:56:05;93729.84;;;5.99;77.84
77041;BME280;65974;42.664;23.264;2023-04-15T04:58:30;93742.72;;;6.04;77.85
77041;BME280;65974;42.664;23.264;2023-04-15T05:00:56;93744.31;;;6.15;77.59
77041;BME280;65974;42.664;23.264;2023-04-15T05:03:21;93738.41;;;6.29;76.97
77041;BME280;65974;42.664;23.264;2023-04-15T05:05:47;93746.78;;;6.38;76.54
77041;BME280;65974;42.664;23.264;2023-04-15T05:08:14;93763.88;;;6.51;75.81
77041;BME280;65974;42.664;23.264;2023-04-15T05:10:42;93765.84;;;6.65;74.82
77041;BME280;65974;42.664;23.264;2023-04-15T05:13:07;93772.72;;;6.73;74.39
77041;BME280;65974;42.664;23.264;2023-04-15T05:15:33;93779.19;;;6.82;74.70
77041;BME280;65974;42.664;23.264;2023-04-15T05:18:01;93779.66;;;6.95;73.38
77041;BME280;65974;42.664;23.264;2023-04-15T05:20:26;93784.59;;;7.00;72.02
77041;BME280;65974;42.664;23.264;2023-04-15T05:22:53;93779.69;;;7.05;71.99
77041;BME280;65974;42.664;23.264;2023-04-15T05:25:18;93789.56;;;7.12;71.73
77041;BME280;65974;42.664;23.264;2023-04-15T05:27:45;93780.53;;;7.17;70.54
77041;BME280;65974;42.664;23.264;2023-04-15T05:30:12;93785.88;;;7.24;70.77
77041;BME280;65974;42.664;23.264;2023-04-15T05:32:39;93771.47;;;7.25;70.28
77041;BME280;65974;42.664;23.264;2023-04-15T05:35:05;93769.25;;;7.37;70.24
77041;BME280;65974;42.664;23.264;2023-04-15T05:37:32;93773.84;;;7.47;69.13
77041;BME280;65974;42.664;23.264;2023-04-15T05:39:57;93778.38;;;7.50;68.67
77041;BME280;65974;42.664;23.264;2023-04-15T05:42:23;93771.22;;;7.51;68.66
77041;BME280;65974;42.664;23.264;2023-04-15T05:44:48;93770.47;;;7.61;68.82
77041;BME280;65974;42.664;23.264;2023-04-15T05:47:13;93782.59;;;7.69;67.73
77041;BME280;65974;42.664;23.264;2023-04-15T05:49:39;93778.47;;;7.68;67.66
77041;BME280;65974;42.664;23.264;2023-04-15T05:52:05;93783.41;;;7.80;67.24
77041;BME280;65974;42.664;23.264;2023-04-15T05:54:34;93775.47;;;7.87;67.05
77041;BME280;65974;42.664;23.264;2023-04-15T05:57:00;93781.16;;;7.89;67.24
77041;BME280;65974;42.664;23.264;2023-04-15T05:59:26;93782.31;;;7.95;67.39
77041;BME280;65974;42.664;23.264;2023-04-15T06:01:52;93777.03;;;8.02;67.53
77041;BME280;65974;42.664;23.264;2023-04-15T06:04:19;93789.16;;;8.14;67.44
77041;BME280;65974;42.664;23.264;2023-04-15T06:06:45;93787.28;;;8.21;66.81
77041;BME280;65974;42.664;23.264;2023-04-15T06:09:12;93792.22;;;8.33;65.47
77041;BME280;65974;42.664;23.264;2023-04-15T06:11:37;93793.00;;;8.44;65.57
77041;BME280;65974;42.664;23.264;2023-04-15T06:14:03;93794.50;;;8.52;65.66
77041;BME280;65974;42.664;23.264;2023-04-15T06:16:30;93796.03;;;8.60;65.27
77041;BME280;65974;42.664;23.264;2023-04-15T06:18:55;93804.38;;;8.66;64.42
77041;BME280;65974;42.664;23.264;2023-04-15T06:21:20;93796.78;;;8.79;64.34
77041;BME280;65974;42.664;23.264;2023-04-15T06:23:46;93813.06;;;8.95;63.82
77041;BME280;65974;42.664;23.264;2023-04-15T06:26:11;93807.00;;;8.98;63.18
77041;BME280;65974;42.664;23.264;2023-04-15T06:28:38;93815.34;;;9.07;63.09
77041;BME280;65974;42.664;23.264;2023-04-15T06:31:03;93811.53;;;9.15;63.45
77041;BME280;65974;42.664;23.264;2023-04-15T06:33:29;93819.47;;;9.18;62.37
77041;BME280;65974;42.664;23.264;2023-04-15T06:35:54;93817.19;;;9.27;62.69
77041;BME280;65974;42.664;23.264;2023-04-15T06:38:20;93826.66;;;9.39;62.22
77041;BME280;65974;42.664;23.264;2023-04-15T06:40:45;93821.72;;;9.41;61.79
77041;BME280;65974;42.664;23.264;2023-04-15T06:43:13;93834.97;;;9.55;60.91
77041;BME280;65974;42.664;23.264;2023-04-15T06:45:39;93830.38;;;9.59;60.80
77041;BME280;65974;42.664;23.264;2023-04-15T06:48:05;93825.81;;;9.67;60.64
77041;BME280;65974;42.664;23.264;2023-04-15T06:50:31;93816.59;;;9.82;59.79
77041;BME280;65974;42.664;23.264;2023-04-15T06:52:57;93816.97;;;9.91;60.00
77041;BME280;65974;42.664;23.264;2023-04-15T06:55:23;93823.72;;;10.06;60.10
77041;BME280;65974;42.664;23.264;2023-04-15T06:57:49;93821.81;;;10.10;59.65
77041;BME280;65974;42.664;23.264;2023-04-15T07:00:15;93821.03;;;10.09;58.92
77041;BME280;65974;42.664;23.264;2023-04-15T07:02:40;93832.00;;;10.26;58.70
77041;BME280;65974;42.664;23.264;2023-04-15T07:05:06;93827.75;;;10.35;56.83
77041;BME280;65974;42.664;23.264;2023-04-15T07:07:32;93826.22;;;10.41;57.04
77041;BME280;65974;42.664;23.264;2023-04-15T07:09:58;93823.06;;;10.57;56.73
77041;BME280;65974;42.664;23.264;2023-04-15T07:12:24;93824.09;;;10.70;57.34
77041;BME280;65974;42.664;23.264;2023-04-15T07:14:50;93825.50;;;10.85;56.32
77041;BME280;65974;42.664;23.264;2023-04-15T07:17:15;93830.38;;;10.93;55.19
77041;BME280;65974;42.664;23.264;2023-04-15T07:19:41;93825.69;;;11.08;51.42
77041;BME280;65974;42.664;23.264;2023-04-15T07:22:06;93820.22;;;11.22;51.62
77041;BME280;65974;42.664;23.264;2023-04-15T07:24:32;93804.50;;;11.31;49.91
77041;BME280;65974;42.664;23.264;2023-04-15T07:26:57;93818.84;;;11.44;52.30
77041;BME280;65974;42.664;23.264;2023-04-15T07:29:23;93829.56;;;11.41;53.18
77041;BME280;65974;42.664;23.264;2023-04-15T07:31:48;93833.41;;;11.36;52.64
77041;BME280;65974;42.664;23.264;2023-04-15T07:34:14;93826.09;;;11.44;50.38
77041;BME280;65974;42.664;23.264;2023-04-15T07:36:41;93823.03;;;11.45;49.90
77041;BME280;65974;42.664;23.264;2023-04-15T07:39:06;93824.84;;;11.55;50.07
77041;BME280;65974;42.664;23.264;2023-04-15T07:41:32;93821.59;;;11.75;50.78
77041;BME280;65974;42.664;23.264;2023-04-15T07:43:57;93819.34;;;11.73;52.68
77041;BME280;65974;42.664;23.264;2023-04-15T07:46:26;93826.09;;;11.81;53.25
77041;BME280;65974;42.664;23.264;2023-04-15T07:48:52;93836.69;;;11.88;52.58
77041;BME280;65974;42.664;23.264;2023-04-15T07:51:19;93837.44;;;11.89;52.10
77041;BME280;65974;42.664;23.264;2023-04-15T07:53:46;93837.03;;;11.90;51.11
77041;BME280;65974;42.664;23.264;2023-04-15T07:56:12;93846.47;;;11.98;51.61
77041;BME280;65974;42.664;23.264;2023-04-15T07:58:38;93841.78;;;12.06;52.00
77041;BME280;65974;42.664;23.264;2023-04-15T08:01:05;93846.19;;;12.19;50.71
77041;BME280;65974;42.664;23.264;2023-04-15T08:03:31;93856.19;;;12.12;50.35
77041;BME280;65974;42.664;23.264;2023-04-15T08:05:57;93841.28;;;12.18;50.73
77041;BME280;65974;42.664;23.264;2023-04-15T08:08:22;93849.53;;;12.27;49.06
77041;BME280;65974;42.664;23.264;2023-04-15T08:10:49;93837.97;;;12.37;47.24
77041;BME280;65974;42.664;23.264;2023-04-15T08:13:15;93836.00;;;12.41;49.30
77041;BME280;65974;42.664;23.264;2023-04-15T08:15:40;93838.88;;;12.54;49.13
77041;BME280;65974;42.664;23.264;2023-04-15T08:18:06;93845.28;;;12.60;45.81
77041;BME280;65974;42.664;23.264;2023-04-15T08:20:34;93844.75;;;12.68;45.97
77041;BME280;65974;42.664;23.264;2023-04-15T08:22:59;93848.41;;;12.78;46.00
77041;BME280;65974;42.664;23.264;2023-04-15T08:25:27;93855.13;;;12.89;46.12
77041;BME280;65974;42.664;23.264;2023-04-15T08:27:56;93845.03;;;13.00;45.76
77041;BME280;65974;42.664;23.264;2023-04-15T08:30:22;93844.19;;;13.03;46.67
77041;BME280;65974;42.664;23.264;2023-04-15T08:32:49;93840.13;;;13.22;46.23
77041;BME280;65974;42.664;23.264;2023-04-15T08:35:15;93836.63;;;13.25;45.18
77041;BME280;65974;42.664;23.264;2023-04-15T08:37:40;93831.75;;;13.20;44.91
77041;BME280;65974;42.664;23.264;2023-04-15T08:40:07;93818.44;;;13.16;44.23
77041;BME280;65974;42.664;23.264;2023-04-15T08:42:41;93818.03;;;13.18;45.87
77041;BME280;65974;42.664;23.264;2023-04-15T08:45:09;93817.97;;;13.21;45.05
77041;BME280;65974;42.664;23.264;2023-04-15T08:47:58;93836.56;;;13.29;43.36
77041;BME280;65974;42.664;23.264;2023-04-15T08:50:25;93831.16;;;13.32;41.56
77041;BME280;65974;42.664;23.264;2023-04-15T08:52:56;93818.41;;;13.40;40.86
77041;BME280;65974;42.664;23.264;2023-04-15T08:55:25;93818.41;;;13.40;41.08
77041;BME280;65974;42.664;23.264;2023-04-15T08:57:54;93819.22;;;13.37;40.31
77041;BME280;65974;42.664;23.264;2023-04-15T09:00:20;93817.47;;;13.50;40.23
77041;BME280;65974;42.664;23.264;2023-04-15T09:02:46;93814.31;;;13.55;40.18
77041;BME280;65974;42.664;23.264;2023-04-15T09:05:12;93810.88;;;13.54;40.09
77041;BME280;65974;42.664;23.264;2023-04-15T09:07:38;93815.75;;;13.59;41.36
77041;BME280;65974;42.664;23.264;2023-04-15T09:10:03;93814.94;;;13.62;41.30
77041;BME280;65974;42.664;23.264;2023-04-15T09:12:33;93810.88;;;13.74;40.96
77041;BME280;65974;42.664;23.264;2023-04-15T09:14:58;93794.69;;;13.81;39.45
77041;BME280;65974;42.664;23.264;2023-04-15T09:17:24;93806.06;;;13.85;35.11
77041;BME280;65974;42.664;23.264;2023-04-15T09:20:06;93806.28;;;13.94;34.94
77041;BME280;65974;42.664;23.264;2023-04-15T09:22:32;93796.28;;;14.14;35.34
77041;BME280;65974;42.664;23.264;2023-04-15T09:24:58;93792.66;;;14.24;34.47
77041;BME280;65974;42.664;23.264;2023-04-15T09:27:24;93799.16;;;14.43;34.89
77041;BME280;65974;42.664;23.264;2023-04-15T09:29:50;93807.53;;;14.45;35.39
77041;BME280;65974;42.664;23.264;2023-04-15T09:32:19;93816.31;;;14.45;34.77
77041;BME280;65974;42.664;23.264;2023-04-15T09:34:48;93817.09;;;14.46;32.83
77041;BME280;65974;42.664;23.264;2023-04-15T09:37:15;93795.47;;;14.37;32.45
77041;BME280;65974;42.664;23.264;2023-04-15T09:39:51;93796.31;;;14.50;33.88
77041;BME280;65974;42.664;23.264;2023-04-15T09:42:17;93789.81;;;14.67;34.62
77041;BME280;65974;42.664;23.264;2023-04-15T09:44:49;93798.56;;;14.51;31.23
77041;BME280;65974;42.664;23.264;2023-04-15T09:47:31;93802.28;;;14.73;32.07
77041;BME280;65974;42.664;23.264;2023-04-15T09:50:00;93791.22;;;14.55;30.17
77041;BME280;65974;42.664;23.264;2023-04-15T09:52:26;93806.63;;;14.67;31.04
77041;BME280;65974;42.664;23.264;2023-04-15T09:54:53;93812.59;;;14.75;29.83
77041;BME280;65974;42.664;23.264;2023-04-15T09:57:21;93816.44;;;14.74;30.23
77041;BME280;65974;42.664;23.264;2023-04-15T09:59:48;93815.84;;;14.83;30.18
77041;BME280;65974;42.664;23.264;2023-04-15T10:02:14;93806.53;;;14.87;30.60
77041;BME280;65974;42.664;23.264;2023-04-15T10:04:40;93799.84;;;14.95;31.20
77041;BME280;65974;42.664;23.264;2023-04-15T10:07:10;93802.41;;;15.15;31.87
77041;BME280;65974;42.664;23.264;2023-04-15T10:09:37;93802.81;;;15.29;31.87
77041;BME280;65974;42.664;23.264;2023-04-15T10:12:04;93796.28;;;15.46;32.24
77041;BME280;65974;42.664;23.264;2023-04-15T10:14:37;93783.84;;;15.52;32.70
77041;BME280;65974;42.664;23.264;2023-04-15T10:17:10;93791.22;;;15.77;32.88
77041;BME280;65974;42.664;23.264;2023-04-15T10:19:37;93792.22;;;15.83;32.67
77041;BME280;65974;42.664;23.264;2023-04-15T10:22:03;93792.56;;;15.98;32.03
77041;BME280;65974;42.664;23.264;2023-04-15T10:24:33;93788.00;;;16.23;32.18
77041;BME280;65974;42.664;23.264;2023-04-15T10:27:02;93795.81;;;15.93;30.66
77041;BME280;65974;42.664;23.264;2023-04-15T10:29:28;93782.72;;;16.20;30.61
77041;BME280;65974;42.664;23.264;2023-04-15T10:31:58;93773.28;;;16.28;31.22
77041;BME280;65974;42.664;23.264;2023-04-15T10:34:25;93776.72;;;16.16;32.06
77041;BME280;65974;42.664;23.264;2023-04-15T10:36:54;93772.59;;;15.99;31.94
77041;BME280;65974;42.664;23.264;2023-04-15T10:39:37;93769.91;;;15.99;31.97
77041;BME280;65974;42.664;23.264;2023-04-15T10:42:11;93772.75;;;16.20;33.70
77041;BME280;65974;42.664;23.264;2023-04-15T10:44:38;93767.69;;;16.22;33.99
77041;BME280;65974;42.664;23.264;2023-04-15T10:47:13;93761.69;;;16.31;33.41
77041;BME280;65974;42.664;23.264;2023-04-15T10:49:48;93764.16;;;16.51;32.47
77041;BME280;65974;42.664;23.264;2023-04-15T10:52:16;93765.69;;;16.52;32.30
77041;BME280;65974;42.664;23.264;2023-04-15T10:54:42;93752.41;;;16.45;32.15
77041;BME280;65974;42.664;23.264;2023-04-15T10:57:21;93756.53;;;16.62;31.84
77041;BME280;65974;42.664;23.264;2023-04-15T11:00:12;93760.06;;;16.84;32.09
77041;BME280;65974;42.664;23.264;2023-04-15T11:05:20;93756.31;;;16.69;31.57
77041;BME280;65974;42.664;23.264;2023-04-15T11:07:47;93744.44;;;16.91;32.27
77041;BME280;65974;42.664;23.264;2023-04-15T11:12:38;93756.25;;;16.94;32.34
77041;BME280;65974;42.664;23.264;2023-04-15T11:15:27;93749.72;;;16.95;32.83
77041;BME280;65974;42.664;23.264;2023-04-15T11:17:55;93751.72;;;17.03;32.57
77041;BME280;65974;42.664;23.264;2023-04-15T11:20:21;93772.75;;;16.71;32.16
77041;BME280;65974;42.664;23.264;2023-04-15T11:22:51;93748.66;;;16.80;30.24
77041;BME280;65974;42.664;23.264;2023-04-15T11:25:24;93753.28;;;16.79;30.48
77041;BME280;65974;42.664;23.264;2023-04-15T11:27:51;93767.25;;;16.87;30.59
77041;BME280;65974;42.664;23.264;2023-04-15T11:30:23;93764.16;;;17.23;30.91
77041;BME280;65974;42.664;23.264;2023-04-15T11:32:49;93774.44;;;17.02;30.68
77041;BME280;65974;42.664;23.264;2023-04-15T11:35:16;93765.19;;;16.91;30.58
77041;BME280;65974;42.664;23.264;2023-04-15T11:37:45;93771.06;;;17.11;30.93
77041;BME280;65974;42.664;23.264;2023-04-15T11:40:11;93772.44;;;17.28;30.02
77041;BME280;65974;42.664;23.264;2023-04-15T11:42:38;93757.75;;;17.29;30.07
77041;BME280;65974;42.664;23.264;2023-04-15T11:45:11;93760.69;;;17.35;29.80
77041;BME280;65974;42.664;23.264;2023-04-15T11:47:37;93764.59;;;17.55;30.49
77041;BME280;65974;42.664;23.264;2023-04-15T11:50:19;93759.41;;;17.48;30.39
77041;BME280;65974;42.664;23.264;2023-04-15T11:55:23;93747.50;;;17.15;29.93
77041;BME280;65974;42.664;23.264;2023-04-15T12:00:38;93756.09;;;17.23;29.62
77041;BME280;65974;42.664;23.264;2023-04-15T12:03:37;93758.97;;;17.28;29.74
77041;BME280;65974;42.664;23.264;2023-04-15T12:06:22;93756.66;;;17.52;29.07
77041;BME280;65974;42.664;23.264;2023-04-15T12:16:44;93749.19;;;17.56;27.20
77041;BME280;65974;42.664;23.264;2023-04-15T12:19:12;93759.72;;;17.63;27.44
77041;BME280;65974;42.664;23.264;2023-04-15T12:21:40;93760.78;;;17.65;28.23
77041;BME280;65974;42.664;23.264;2023-04-15T12:24:07;93765.69;;;17.79;27.94
77041;BME280;65974;42.664;23.264;2023-04-15T12:26:36;93763.78;;;17.89;28.03
77041;BME280;65974;42.664;23.264;2023-04-15T12:29:06;93752.44;;;17.72;28.38
77041;BME280;65974;42.664;23.264;2023-04-15T12:31:34;93769.44;;;17.60;27.57
77041;BME280;65974;42.664;23.264;2023-04-15T12:34:00;93761.59;;;17.53;28.21
77041;BME280;65974;42.664;23.264;2023-04-15T12:36:27;93764.06;;;17.48;28.27
77041;BME280;65974;42.664;23.264;2023-04-15T12:38:53;93762.84;;;17.61;29.31
77041;BME280;65974;42.664;23.264;2023-04-15T12:41:21;93761.47;;;17.78;29.41
77041;BME280;65974;42.664;23.264;2023-04-15T12:43:49;93762.03;;;17.95;29.29
77041;BME280;65974;42.664;23.264;2023-04-15T12:46:15;93763.91;;;18.07;28.71
77041;BME280;65974;42.664;23.264;2023-04-15T12:48:40;93763.56;;;18.27;28.05
77041;BME280;65974;42.664;23.264;2023-04-15T12:51:06;93770.75;;;18.30;27.85
77041;BME280;65974;42.664;23.264;2023-04-15T12:53:32;93768.03;;;18.51;27.20
77041;BME280;65974;42.664;23.264;2023-04-15T12:55:57;93765.09;;;18.68;26.91
77041;BME280;65974;42.664;23.264;2023-04-15T12:58:22;93771.03;;;18.53;26.87
77041;BME280;65974;42.664;23.264;2023-04-15T13:00:48;93756.56;;;18.69;26.85
77041;BME280;65974;42.664;23.264;2023-04-15T13:03:14;93755.13;;;18.86;26.94
77041;BME280;65974;42.664;23.264;2023-04-15T13:05:40;93757.84;;;19.04;27.18
77041;BME280;65974;42.664;23.264;2023-04-15T13:08:06;93746.75;;;19.02;26.23
77041;BME280;65974;42.664;23.264;2023-04-15T13:10:35;93762.91;;;18.93;26.26
77041;BME280;65974;42.664;23.264;2023-04-15T13:13:04;93756.69;;;18.66;26.80